createdAt,value
2023-03-18T00:02:25.599Z,5.90
2023-03-18T00:04:58.710Z,5.80
2023-03-18T00:07:25.598Z,5.70
2023-03-18T00:09:52.577Z,5.70
2023-03-18T00:12:25.705Z,5.60
2023-03-18T00:14:58.716Z,5.50
2023-03-18T00:17:25.902Z,5.50
2023-03-18T00:19:59.693Z,5.50
2023-03-18T00:22:26.588Z,5.60
2023-03-18T00:24:59.686Z,5.60
2023-03-18T00:27:26.580Z,5.70
2023-03-18T00:29:59.734Z,5.80
2023-03-18T00:32:33.718Z,5.80
2023-03-18T00:35:00.680Z,5.70
2023-03-18T00:37:27.578Z,5.70
2023-03-18T00:40:00.716Z,5.60
2023-03-18T00:42:27.587Z,5.60
2023-03-18T00:45:00.699Z,5.60
2023-03-18T00:47:27.557Z,5.70
2023-03-18T00:50:00.724Z,5.70
2023-03-18T00:52:27.609Z,5.60
2023-03-18T00:55:00.781Z,5.60
2023-03-18T00:57:28.775Z,5.70
2023-03-18T01:00:03.756Z,5.70
2023-03-18T01:02:30.751Z,5.70
2023-03-18T01:05:03.724Z,5.70
2023-03-18T01:07:30.621Z,5.80
2023-03-18T01:10:03.724Z,5.70
2023-03-18T01:12:30.621Z,5.60
2023-03-18T01:15:03.760Z,5.60
2023-03-18T01:17:30.642Z,5.60
2023-03-18T01:19:57.723Z,5.60
2023-03-18T01:22:30.742Z,5.60
2023-03-18T01:24:57.642Z,5.70
2023-03-18T01:27:31.759Z,5.70
2023-03-18T01:29:58.825Z,5.60
2023-03-18T01:32:25.754Z,5.70
2023-03-18T01:34:58.782Z,5.80
2023-03-18T01:37:32.737Z,5.80
2023-03-18T01:39:59.693Z,5.90
2023-03-18T01:42:32.749Z,5.90
2023-03-18T01:45:21.955Z,5.90
2023-03-18T01:47:55.811Z,6.00
2023-03-18T01:50:26.979Z,6.10
2023-03-18T01:53:19.731Z,6.10
2023-03-18T01:55:47.189Z,6.10
2023-03-18T01:58:24.783Z,6.10
2023-03-18T02:00:57.918Z,5.90
2023-03-18T02:03:31.757Z,5.80
2023-03-18T02:06:04.737Z,5.80
2023-03-18T02:08:31.588Z,5.80
2023-03-18T02:10:58.592Z,5.80
2023-03-18T02:13:31.790Z,5.70
2023-03-18T02:16:16.771Z,5.60
2023-03-18T02:18:48.195Z,5.60
2023-03-18T02:21:27.805Z,5.60
2023-03-18T02:24:34.198Z,5.60
2023-03-18T02:27:26.770Z,5.60
2023-03-18T02:30:19.114Z,5.50
2023-03-18T02:32:52.808Z,5.50
2023-03-18T02:35:26.814Z,5.50
2023-03-18T02:37:53.736Z,5.40
2023-03-18T02:40:42.808Z,5.40
2023-03-18T02:43:35.801Z,5.40
2023-03-18T02:46:33.814Z,5.40
2023-03-18T02:49:08.783Z,5.50
2023-03-18T02:51:36.372Z,5.50
2023-03-18T02:54:07.056Z,5.50
2023-03-18T02:56:40.852Z,5.40
2023-03-18T02:59:07.840Z,5.50
2023-03-18T03:01:41.843Z,5.50
2023-03-18T03:04:08.919Z,5.50
2023-03-18T03:06:42.809Z,5.40
2023-03-18T03:09:10.953Z,5.40
2023-03-18T03:11:38.059Z,5.30
2023-03-18T03:14:11.842Z,5.30
2023-03-18T03:16:45.822Z,5.40
2023-03-18T03:19:12.739Z,5.40
2023-03-18T03:21:45.842Z,5.40
2023-03-18T03:24:18.806Z,5.30
2023-03-18T03:26:51.793Z,5.30
2023-03-18T03:29:24.819Z,5.20
2023-03-18T03:31:51.706Z,5.10
2023-03-18T03:34:18.614Z,5.00
2023-03-18T03:36:51.787Z,4.70
2023-03-18T03:39:18.726Z,4.50
2023-03-18T03:41:51.794Z,4.40
2023-03-18T03:44:25.497Z,4.40
2023-03-18T03:46:58.793Z,4.30
2023-03-18T03:49:25.688Z,4.30
2023-03-18T03:51:58.808Z,4.20
2023-03-18T03:54:25.738Z,4.20
2023-03-18T03:56:58.807Z,4.30
2023-03-18T03:59:25.762Z,4.30
2023-03-18T04:01:52.641Z,4.50
2023-03-18T04:04:25.905Z,4.50
2023-03-18T04:06:52.893Z,4.50
2023-03-18T04:09:25.789Z,4.40
2023-03-18T04:11:52.711Z,4.60
2023-03-18T04:14:25.879Z,4.50
2023-03-18T04:16:52.826Z,4.50
2023-03-18T04:19:26.856Z,4.50
2023-03-18T04:21:53.961Z,4.50
2023-03-18T04:24:27.876Z,4.40
2023-03-18T04:26:54.792Z,4.30
2023-03-18T04:29:21.703Z,4.20
2023-03-18T04:31:54.868Z,4.20
2023-03-18T04:34:21.821Z,4.20
2023-03-18T04:36:54.833Z,4.10
2023-03-18T04:39:28.821Z,4.10
2023-03-18T04:41:56.390Z,4.00
2023-03-18T04:44:30.851Z,4.10
2023-03-18T04:47:03.908Z,4.10
2023-03-18T04:49:36.831Z,4.00
2023-03-18T04:52:05.091Z,4.20
2023-03-18T04:54:38.874Z,4.20
2023-03-18T04:57:12.810Z,4.20
2023-03-18T04:59:39.705Z,4.10
2023-03-18T05:02:06.574Z,4.10
2023-03-18T05:04:39.853Z,4.10
2023-03-18T05:07:06.819Z,4.00
2023-03-18T05:09:39.829Z,4.00
2023-03-18T05:12:16.838Z,3.70
2023-03-18T05:14:50.840Z,3.70
2023-03-18T05:17:17.697Z,3.70
2023-03-18T05:19:52.845Z,3.60
2023-03-18T05:22:26.863Z,3.60
2023-03-18T05:24:53.722Z,3.50
2023-03-18T05:27:34.907Z,3.50
2023-03-18T05:30:01.915Z,3.50
2023-03-18T05:32:34.898Z,3.50
2023-03-18T05:35:07.861Z,3.60
2023-03-18T05:37:34.891Z,3.60
2023-03-18T05:40:07.849Z,3.60
2023-03-18T05:42:55.092Z,3.60
2023-03-18T05:45:29.906Z,3.60
2023-03-18T05:47:56.959Z,3.70
2023-03-18T05:50:47.824Z,3.60
2023-03-18T05:53:20.856Z,3.60
2023-03-18T05:55:47.734Z,3.70
2023-03-18T05:58:20.899Z,3.60
2023-03-18T06:00:47.821Z,3.70
2023-03-18T06:03:20.915Z,3.70
2023-03-18T06:05:47.840Z,3.70
2023-03-18T06:08:20.939Z,3.60
2023-03-18T06:10:48.364Z,3.70
2023-03-18T06:13:21.860Z,3.70
2023-03-18T06:15:48.955Z,3.70
2023-03-18T06:18:22.886Z,3.80
2023-03-18T06:20:49.770Z,4.00
2023-03-18T06:23:22.892Z,4.20
2023-03-18T06:25:50.043Z,4.20
2023-03-18T06:28:16.950Z,4.30
2023-03-18T06:30:50.955Z,4.50
2023-03-18T06:33:17.874Z,4.70
2023-03-18T06:35:53.737Z,4.70
2023-03-18T06:38:20.826Z,4.80
2023-03-18T06:40:58.527Z,4.90
2023-03-18T06:43:28.133Z,5.10
2023-03-18T06:46:02.000Z,5.30
2023-03-18T06:48:28.862Z,5.60
2023-03-18T06:51:01.897Z,5.80
2023-03-18T06:53:28.833Z,5.90
2023-03-18T06:55:55.743Z,6.10
2023-03-18T06:58:28.884Z,6.20
2023-03-18T07:01:01.931Z,6.40
2023-03-18T07:03:28.855Z,6.80
2023-03-18T07:06:01.921Z,8.90
2023-03-18T07:08:28.856Z,11.10
2023-03-18T07:11:01.925Z,11.10
2023-03-18T07:13:28.875Z,11.10
2023-03-18T07:16:01.974Z,12.00
2023-03-18T07:18:28.869Z,12.90
2023-03-18T07:21:01.923Z,13.50
2023-03-18T07:23:28.758Z,14.60
2023-03-18T07:26:01.897Z,15.30
2023-03-18T07:28:28.791Z,15.80
2023-03-18T07:31:02.005Z,15.60
2023-03-18T07:33:28.901Z,15.40
2023-03-18T07:36:01.956Z,16.00
2023-03-18T07:38:28.826Z,16.90
2023-03-18T07:41:01.922Z,16.80
2023-03-18T07:43:28.799Z,17.00
2023-03-18T07:46:01.923Z,17.00
2023-03-18T07:48:28.813Z,17.40
2023-03-18T07:51:01.904Z,18.60
2023-03-18T07:53:28.956Z,18.70
2023-03-18T07:56:01.938Z,18.00
2023-03-18T07:58:28.838Z,18.30
2023-03-18T08:00:55.749Z,19.40
2023-03-18T08:03:28.956Z,19.80
2023-03-18T08:05:55.822Z,20.70
2023-03-18T08:08:29.962Z,20.80
2023-03-18T08:11:04.923Z,20.00
2023-03-18T08:13:37.924Z,20.40
2023-03-18T08:16:05.717Z,20.60
2023-03-18T08:18:32.692Z,20.50
2023-03-18T08:21:06.936Z,21.20
2023-03-18T08:23:33.851Z,21.90
2023-03-18T08:26:06.906Z,22.00
2023-03-18T08:28:33.825Z,21.20
2023-03-18T08:31:07.034Z,20.80
2023-03-18T08:33:33.992Z,21.20
2023-03-18T08:36:06.998Z,21.90
2023-03-18T08:38:34.352Z,22.60
2023-03-18T08:41:07.952Z,21.90
2023-03-18T08:43:36.363Z,22.30
2023-03-18T08:46:10.945Z,22.00
2023-03-18T08:48:43.976Z,22.80
2023-03-18T08:51:16.961Z,22.50
2023-03-18T08:53:43.859Z,22.90
2023-03-18T08:56:16.978Z,23.40
2023-03-18T08:58:44.053Z,23.00
2023-03-18T09:01:25.124Z,22.70
2023-03-18T09:03:52.087Z,23.50
2023-03-18T09:06:24.990Z,23.00
2023-03-18T09:08:51.882Z,23.10
2023-03-18T09:11:24.973Z,22.40
2023-03-18T09:13:52.588Z,22.90
2023-03-18T09:16:26.013Z,22.50
2023-03-18T09:18:52.916Z,22.30
2023-03-18T09:21:26.004Z,22.70
2023-03-18T09:23:52.986Z,22.60
2023-03-18T09:26:20.951Z,22.10
2023-03-18T09:28:54.007Z,21.50
2023-03-18T09:31:20.928Z,22.10
2023-03-18T09:33:54.041Z,21.60
2023-03-18T09:36:20.935Z,21.90
2023-03-18T09:38:54.021Z,21.40
2023-03-18T09:41:42.032Z,21.10
2023-03-18T09:44:16.781Z,20.70
2023-03-18T09:47:31.042Z,20.10
2023-03-18T09:50:28.091Z,20.00
2023-03-18T09:53:32.000Z,19.60
2023-03-18T09:55:59.684Z,19.70
2023-03-18T09:59:23.051Z,19.40
2023-03-18T10:01:53.656Z,19.40
2023-03-18T10:04:35.031Z,19.20
2023-03-18T10:07:06.392Z,19.30
2023-03-18T10:09:52.035Z,19.00
2023-03-18T10:12:43.034Z,19.10
2023-03-18T10:15:44.162Z,18.80
2023-03-18T10:18:33.755Z,18.70
2023-03-18T10:21:55.017Z,18.40
2023-03-18T10:24:44.053Z,18.00
2023-03-18T10:27:57.878Z,18.10
2023-03-18T10:30:59.140Z,18.40
2023-03-18T10:34:03.183Z,18.80
2023-03-18T10:37:07.786Z,18.90
2023-03-18T10:39:41.086Z,19.00
2023-03-18T10:42:30.325Z,19.10
2023-03-18T10:45:17.082Z,19.20
2023-03-18T10:47:47.323Z,19.00
2023-03-18T10:50:24.144Z,19.00
2023-03-18T10:53:14.983Z,18.60
2023-03-18T10:56:13.160Z,18.60
2023-03-18T10:58:41.161Z,18.70
2023-03-18T11:01:12.639Z,18.90
2023-03-18T11:03:52.068Z,18.80
2023-03-18T11:06:31.579Z,18.70
2023-03-18T11:09:17.111Z,18.70
2023-03-18T11:11:57.119Z,18.50
2023-03-18T11:14:36.144Z,18.60
2023-03-18T11:17:29.158Z,18.70
2023-03-18T11:20:31.570Z,18.60
2023-03-18T11:23:11.514Z,18.60
2023-03-18T11:25:38.710Z,18.70
2023-03-18T11:28:06.737Z,18.90
2023-03-18T11:31:02.152Z,18.80
2023-03-18T11:33:39.106Z,18.80
2023-03-18T11:36:07.122Z,18.80
2023-03-18T11:38:43.077Z,19.00
2023-03-18T11:41:34.073Z,19.00
2023-03-18T11:44:14.097Z,19.10
2023-03-18T11:46:54.255Z,18.90
2023-03-18T11:49:33.043Z,18.90
2023-03-18T11:52:12.764Z,19.10
2023-03-18T11:54:52.059Z,19.10
2023-03-18T11:57:29.121Z,19.00
2023-03-18T12:00:25.150Z,19.30
2023-03-18T12:03:40.156Z,19.60
2023-03-18T12:06:22.230Z,19.00
2023-03-18T12:09:20.176Z,18.80
2023-03-18T12:12:23.527Z,19.00
2023-03-18T12:15:34.483Z,18.70
2023-03-18T12:18:59.137Z,19.00
2023-03-18T12:21:50.132Z,19.00
2023-03-18T12:24:51.153Z,18.70
2023-03-18T12:28:18.200Z,18.40
2023-03-18T12:31:00.999Z,18.50
2023-03-18T12:34:02.164Z,18.50
2023-03-18T12:37:02.156Z,18.60
2023-03-18T12:40:18.145Z,18.70
2023-03-18T12:43:20.844Z,18.60
2023-03-18T12:45:56.184Z,18.70
2023-03-18T12:48:42.655Z,18.20
2023-03-18T12:51:41.119Z,18.60
2023-03-18T12:54:13.978Z,18.40
2023-03-18T12:56:52.189Z,18.60
2023-03-18T12:59:31.429Z,18.40
2023-03-18T13:02:26.186Z,18.30
2023-03-18T13:05:00.662Z,18.20
2023-03-18T13:07:50.160Z,18.20
2023-03-18T13:10:22.586Z,18.00
2023-03-18T13:13:06.145Z,18.20
2023-03-18T13:15:35.344Z,18.40
2023-03-18T13:18:20.169Z,18.40
2023-03-18T13:20:54.187Z,18.60
2023-03-18T13:24:04.143Z,18.50
2023-03-18T13:27:08.313Z,18.20
2023-03-18T13:30:08.127Z,18.10
2023-03-18T13:33:03.918Z,18.20
2023-03-18T13:36:25.179Z,18.20
2023-03-18T13:38:54.865Z,18.20
2023-03-18T13:42:11.162Z,18.70
2023-03-18T13:45:09.165Z,18.40
2023-03-18T13:47:37.978Z,18.30
2023-03-18T13:50:49.181Z,18.10
2023-03-18T13:53:36.189Z,18.00
2023-03-18T13:56:12.161Z,17.70
2023-03-18T13:58:46.435Z,17.30
2023-03-18T14:01:32.231Z,17.60
2023-03-18T14:04:28.220Z,17.90
2023-03-18T14:07:24.157Z,18.10
2023-03-18T14:10:17.271Z,18.70
2023-03-18T14:12:52.198Z,19.00
2023-03-18T14:15:42.802Z,19.00
2023-03-18T14:18:29.230Z,19.10
2023-03-18T14:21:00.145Z,19.10
2023-03-18T14:23:46.209Z,18.90
2023-03-18T14:26:24.887Z,19.10
2023-03-18T14:29:11.240Z,18.80
2023-03-18T14:31:47.196Z,18.90
2023-03-18T14:34:16.787Z,18.90
2023-03-18T14:36:50.180Z,18.80
2023-03-18T14:39:19.898Z,18.70
2023-03-18T14:41:49.420Z,18.70
2023-03-18T14:44:40.187Z,18.70
2023-03-18T14:47:38.279Z,18.80
2023-03-18T14:50:50.217Z,18.50
2023-03-18T14:53:24.578Z,18.40
2023-03-18T14:55:58.216Z,18.40
2023-03-18T14:58:26.049Z,18.40
2023-03-18T15:01:15.987Z,18.40
2023-03-18T15:03:45.525Z,18.50
2023-03-18T15:06:27.268Z,18.40
2023-03-18T15:09:08.029Z,18.50
2023-03-18T15:11:47.235Z,18.30
2023-03-18T15:14:26.596Z,18.50
2023-03-18T15:17:12.268Z,18.30
2023-03-18T15:19:45.252Z,18.10
2023-03-18T15:22:27.183Z,18.10
2023-03-18T15:25:08.208Z,18.20
2023-03-18T15:27:35.729Z,18.30
2023-03-18T15:30:12.203Z,18.20
2023-03-18T15:32:47.854Z,18.30
2023-03-18T15:35:30.203Z,17.90
2023-03-18T15:38:16.001Z,17.70
2023-03-18T15:41:17.291Z,17.80
2023-03-18T15:43:52.225Z,17.80
2023-03-18T15:46:34.263Z,17.80
2023-03-18T15:49:02.526Z,17.70
2023-03-18T15:51:49.299Z,17.70
2023-03-18T15:54:25.663Z,17.40
2023-03-18T15:56:59.242Z,17.40
2023-03-18T15:59:37.256Z,17.30
2023-03-18T16:02:12.429Z,17.30
2023-03-18T16:04:46.315Z,17.40
2023-03-18T16:07:22.452Z,17.40
2023-03-18T16:09:56.305Z,17.20
2023-03-18T16:12:24.294Z,17.20
2023-03-18T16:14:51.753Z,17.20
2023-03-18T16:17:26.320Z,17.20
2023-03-18T16:19:53.325Z,17.10
2023-03-18T16:22:27.235Z,17.10
2023-03-18T16:24:54.218Z,17.10
2023-03-18T16:27:45.238Z,17.00
2023-03-18T16:30:29.316Z,16.90
2023-03-18T16:32:56.626Z,16.90
2023-03-18T16:35:37.487Z,16.90
2023-03-18T16:38:04.930Z,16.80
2023-03-18T16:40:32.873Z,16.80
2023-03-18T16:43:06.354Z,16.80
2023-03-18T16:45:33.983Z,16.70
2023-03-18T16:48:06.050Z,16.60
2023-03-18T16:50:45.339Z,16.60
2023-03-18T16:53:27.387Z,16.60
2023-03-18T16:56:09.339Z,16.50
2023-03-18T16:58:43.314Z,16.40
2023-03-18T17:01:14.806Z,16.30
2023-03-18T17:03:41.963Z,16.20
2023-03-18T17:06:15.340Z,16.20
2023-03-18T17:08:48.323Z,16.10
2023-03-18T17:11:16.821Z,16.10
2023-03-18T17:13:50.304Z,16.00
2023-03-18T17:16:18.471Z,15.90
2023-03-18T17:18:52.320Z,15.90
2023-03-18T17:21:19.231Z,15.80
2023-03-18T17:23:46.101Z,15.70
2023-03-18T17:26:19.331Z,15.70
2023-03-18T17:28:54.321Z,15.60
2023-03-18T17:31:21.306Z,15.60
2023-03-18T17:33:48.262Z,15.50
2023-03-18T17:36:21.355Z,15.50
2023-03-18T17:38:48.318Z,15.40
2023-03-18T17:41:26.296Z,15.40
2023-03-18T17:43:53.162Z,15.30
2023-03-18T17:46:26.386Z,15.20
2023-03-18T17:48:53.270Z,15.20
2023-03-18T17:51:21.222Z,15.20
2023-03-18T17:53:56.329Z,15.00
2023-03-18T17:56:23.261Z,15.00
2023-03-18T17:58:50.830Z,15.00
2023-03-18T18:01:25.397Z,15.00
2023-03-18T18:03:55.726Z,14.70
2023-03-18T18:06:31.308Z,14.70
2023-03-18T18:08:58.854Z,14.60
2023-03-18T18:11:43.394Z,14.50
2023-03-18T18:14:24.194Z,14.20
2023-03-18T18:16:58.311Z,14.00
2023-03-18T18:19:31.318Z,14.10
2023-03-18T18:21:58.140Z,14.00
2023-03-18T18:24:28.163Z,14.00
2023-03-18T18:27:01.366Z,14.00
2023-03-18T18:29:28.451Z,14.00
2023-03-18T18:32:02.362Z,13.90
2023-03-18T18:34:29.294Z,13.80
2023-03-18T18:37:02.359Z,13.60
2023-03-18T18:39:29.281Z,13.50
2023-03-18T18:41:56.169Z,13.50
2023-03-18T18:44:29.368Z,13.40
2023-03-18T18:47:02.516Z,13.30
2023-03-18T18:49:29.466Z,13.40
2023-03-18T18:52:04.398Z,13.40
2023-03-18T18:54:31.441Z,13.60
2023-03-18T18:57:04.377Z,13.60
2023-03-18T18:59:37.348Z,13.70
2023-03-18T19:02:21.828Z,13.70
2023-03-18T19:05:01.383Z,13.70
2023-03-18T19:07:28.298Z,13.80
2023-03-18T19:10:01.385Z,13.70
2023-03-18T19:12:34.403Z,13.80
2023-03-18T19:15:01.839Z,13.80
2023-03-18T19:17:35.401Z,13.80
2023-03-18T19:20:09.452Z,13.70
2023-03-18T19:22:36.442Z,13.70
2023-03-18T19:25:03.482Z,13.70
2023-03-18T19:27:37.412Z,13.70
2023-03-18T19:30:16.410Z,13.60
2023-03-18T19:32:49.472Z,13.60
2023-03-18T19:35:16.560Z,13.60
2023-03-18T19:37:52.351Z,13.50
2023-03-18T19:40:29.963Z,13.60
2023-03-18T19:43:03.449Z,13.40
2023-03-18T19:45:30.413Z,13.40
2023-03-18T19:48:03.437Z,13.20
2023-03-18T19:50:30.415Z,13.30
2023-03-18T19:52:57.534Z,13.30
2023-03-18T19:55:31.443Z,13.10
2023-03-18T19:57:58.376Z,13.00
2023-03-18T20:00:32.421Z,12.80
2023-03-18T20:02:59.371Z,12.70
2023-03-18T20:05:32.832Z,12.50
2023-03-18T20:07:59.841Z,12.40
2023-03-18T20:10:33.396Z,12.20
2023-03-18T20:13:00.325Z,12.10
2023-03-18T20:15:33.585Z,12.00
2023-03-18T20:18:00.813Z,11.90
2023-03-18T20:20:36.469Z,11.70
2023-03-18T20:23:07.942Z,11.70
2023-03-18T20:25:43.431Z,11.50
2023-03-18T20:28:25.400Z,11.60
2023-03-18T20:30:53.540Z,11.60
2023-03-18T20:33:27.450Z,11.50
2023-03-18T20:36:00.445Z,11.20
2023-03-18T20:38:43.431Z,11.00
2023-03-18T20:41:15.784Z,11.00
2023-03-18T20:43:49.442Z,10.90
2023-03-18T20:46:16.583Z,10.90
2023-03-18T20:48:50.436Z,10.80
2023-03-18T20:51:37.433Z,10.70
2023-03-18T20:54:20.830Z,10.70
2023-03-18T20:56:54.445Z,10.60
2023-03-18T20:59:28.413Z,10.60
2023-03-18T21:01:55.335Z,10.60
2023-03-18T21:04:28.489Z,10.60
2023-03-18T21:06:55.433Z,10.60
2023-03-18T21:09:28.462Z,10.60
2023-03-18T21:11:55.429Z,10.60
2023-03-18T21:14:28.473Z,10.50
2023-03-18T21:17:01.546Z,10.50
2023-03-18T21:19:28.508Z,10.40
2023-03-18T21:22:01.458Z,10.40
2023-03-18T21:24:38.449Z,10.50
2023-03-18T21:27:06.047Z,10.40
2023-03-18T21:29:40.489Z,10.40
2023-03-18T21:32:30.266Z,10.30
2023-03-18T21:35:05.338Z,10.40
2023-03-18T21:37:32.385Z,10.30
2023-03-18T21:40:05.454Z,10.30
2023-03-18T21:42:32.350Z,10.30
2023-03-18T21:44:59.274Z,10.30
2023-03-18T21:47:33.445Z,10.30
2023-03-18T21:50:06.463Z,10.10
2023-03-18T21:52:36.869Z,10.20
2023-03-18T21:55:11.481Z,10.30
2023-03-18T21:57:38.438Z,10.50
2023-03-18T22:00:06.386Z,10.50
2023-03-18T22:02:43.528Z,10.60
2023-03-18T22:05:17.167Z,10.60
2023-03-18T22:07:50.523Z,10.60
2023-03-18T22:10:20.391Z,10.70
2023-03-18T22:12:53.470Z,10.70
2023-03-18T22:15:37.461Z,10.50
2023-03-18T22:18:11.511Z,10.60
2023-03-18T22:20:38.837Z,10.50
2023-03-18T22:23:22.519Z,10.50
2023-03-18T22:26:00.470Z,10.60
2023-03-18T22:28:27.424Z,10.50
2023-03-18T22:31:03.135Z,10.40
2023-03-18T22:33:32.292Z,10.30
2023-03-18T22:36:05.564Z,10.20
2023-03-18T22:38:32.604Z,10.20
2023-03-18T22:41:05.557Z,10.20
2023-03-18T22:43:34.874Z,10.20
2023-03-18T22:46:13.488Z,10.30
2023-03-18T22:48:40.458Z,10.20
2023-03-18T22:51:07.402Z,10.20
2023-03-18T22:53:45.499Z,10.30
2023-03-18T22:56:14.187Z,10.30
2023-03-18T22:58:41.174Z,10.50
2023-03-18T23:01:25.606Z,10.40
2023-03-18T23:03:59.514Z,10.40
2023-03-18T23:06:26.541Z,10.60
2023-03-18T23:08:59.491Z,10.50
2023-03-18T23:11:26.454Z,10.40
2023-03-18T23:13:59.523Z,10.20
2023-03-18T23:16:26.472Z,10.10
2023-03-18T23:18:59.528Z,10.00
2023-03-18T23:21:26.675Z,9.90
2023-03-18T23:24:00.578Z,9.80
2023-03-18T23:26:27.472Z,9.70
2023-03-18T23:29:00.496Z,9.50
2023-03-18T23:31:27.561Z,9.50
2023-03-18T23:34:00.574Z,9.60
2023-03-18T23:36:27.485Z,9.50
2023-03-18T23:39:00.573Z,9.50
2023-03-18T23:41:27.458Z,9.50
2023-03-18T23:44:00.559Z,9.50
2023-03-18T23:46:33.591Z,9.50
2023-03-18T23:49:00.565Z,9.50
2023-03-18T23:51:34.529Z,9.60
2023-03-18T23:54:01.592Z,9.50
2023-03-18T23:56:34.504Z,9.50
2023-03-18T23:59:07.526Z,9.40
